Time;durP1;ratioP1;P1;durP2;ratioP2;P2;SDS_P1;SDS_P2;PMS_P1;PMS_P2;Temp;Humidity;BMP_temperature;BMP_pressure;BME280_temperature;BME280_humidity;BME280_pressure;Samples;Min_cycle;Max_cycle;Signal;HPM_P1;HPM_P2
2022/11/01 00:01:00;;;;;;;0.85;0.20;;;22.30;99.90;;;;;;5067234;28;20557;-73
2022/11/01 00:03:31;;;;;;;0.65;0.20;;;22.50;99.90;;;;;;5073746;28;20196;-74
2022/11/01 00:06:02;;;;;;;0.17;0.10;;;22.50;99.90;;;;;;5073485;28;20644;-80
2022/11/01 00:08:33;;;;;;;3.00;0.30;;;22.50;99.90;;;;;;5073559;28;20632;-73
2022/11/01 00:11:08;;;;;;;1.02;0.20;;;22.70;99.90;;;;;;5066274;28;20238;-74
2022/11/01 00:13:41;;;;;;;0.85;0.20;;;22.70;99.90;;;;;;5072524;28;20196;-72
2022/11/01 00:16:12;;;;;;;0.10;0.10;;;22.90;99.90;;;;;;5068380;28;20207;-72
2022/11/01 00:18:42;;;;;;;0.10;0.10;;;23.00;99.90;;;;;;5070628;28;20201;-75
2022/11/01 00:21:16;;;;;;;3.47;0.10;;;22.90;99.90;;;;;;5066486;28;20557;-80
2022/11/01 00:23:47;;;;;;;1.50;0.20;;;23.00;99.90;;;;;;5073422;28;20553;-74
2022/11/01 00:26:20;;;;;;;0.30;0.00;;;23.00;99.90;;;;;;5063666;28;20651;-73
2022/11/01 00:28:52;;;;;;;0.22;0.10;;;22.90;99.90;;;;;;5070490;28;20574;-72
2022/11/01 00:31:24;;;;;;;1.30;0.17;;;22.90;99.90;;;;;;5077222;28;20196;-72
2022/11/01 00:33:55;;;;;;;0.10;0.10;;;23.00;99.90;;;;;;5075146;28;20196;-76
2022/11/01 00:36:26;;;;;;;0.70;0.10;;;23.10;99.90;;;;;;5083267;28;20189;-76
2022/11/01 00:38:57;;;;;;;0.55;0.20;;;23.20;99.90;;;;;;5073473;28;20205;-73
2022/11/01 00:41:28;;;;;;;0.30;0.10;;;23.20;99.90;;;;;;5065571;28;20228;-73
2022/11/01 00:44:01;;;;;;;0.20;0.10;;;23.20;99.90;;;;;;5077547;28;20211;-72
2022/11/01 00:46:31;;;;;;;0.40;0.10;;;23.20;99.90;;;;;;5064006;28;20561;-72
2022/11/01 00:49:05;;;;;;;0.30;0.10;;;23.30;99.90;;;;;;5071443;28;20681;-71
2022/11/01 00:51:36;;;;;;;0.65;0.10;;;23.30;99.90;;;;;;5071333;28;20197;-73
2022/11/01 00:54:07;;;;;;;0.57;0.10;;;23.20;99.90;;;;;;5075137;28;20221;-73
2022/11/01 00:56:38;;;;;;;3.17;2.40;;;23.30;99.90;;;;;;5069955;28;20206;-76
2022/11/01 00:59:11;;;;;;;3.58;1.35;;;23.40;99.90;;;;;;5071967;28;20560;-72
2022/11/01 01:01:42;;;;;;;0.50;0.30;;;23.40;99.90;;;;;;5076873;28;20199;-71
2022/11/01 01:04:13;;;;;;;0.45;0.10;;;23.30;99.90;;;;;;5087737;28;20300;-72
2022/11/01 01:06:44;;;;;;;0.20;0.10;;;23.30;99.90;;;;;;5072241;28;20192;-73
2022/11/01 01:09:14;;;;;;;0.40;0.08;;;23.20;99.90;;;;;;5075757;28;20223;-74
2022/11/01 01:11:46;;;;;;;2.50;0.17;;;23.30;99.90;;;;;;5072539;28;20188;-73
2022/11/01 01:14:18;;;;;;;1.13;0.10;;;23.30;99.90;;;;;;5073817;28;20239;-73
2022/11/01 01:16:49;;;;;;;2.40;0.10;;;23.20;99.90;;;;;;5071410;28;20201;-74
2022/11/01 01:19:20;;;;;;;0.52;0.10;;;23.10;99.90;;;;;;5077485;28;20200;-77
2022/11/01 01:21:52;;;;;;;0.10;0.10;;;23.20;99.90;;;;;;5070193;28;20189;-75
2022/11/01 01:24:23;;;;;;;2.83;0.13;;;23.30;99.90;;;;;;5063241;28;20205;-73
2022/11/01 01:26:54;;;;;;;0.73;0.10;;;23.30;99.90;;;;;;5066587;28;20224;-75
2022/11/01 01:29:27;;;;;;;0.03;0.03;;;23.30;99.90;;;;;;5073148;28;20196;-71
2022/11/01 01:31:57;;;;;;;0.10;0.10;;;23.30;99.90;;;;;;5072763;28;20703;-75
2022/11/01 01:34:28;;;;;;;0.10;0.10;;;23.30;99.90;;;;;;5066042;28;20852;-75
2022/11/01 01:36:59;;;;;;;0.73;0.10;;;23.40;99.90;;;;;;5070027;28;20205;-74
2022/11/01 01:39:30;;;;;;;0.25;0.20;;;23.20;99.90;;;;;;5068812;28;20197;-75
2022/11/01 01:42:01;;;;;;;0.25;0.22;;;23.10;99.90;;;;;;5072399;28;20651;-75
2022/11/01 01:45:16;;;;;;;1.38;0.30;;;23.20;99.90;;;;;;5069500;28;20228;-76
2022/11/01 01:47:50;;;;;;;0.68;0.30;;;23.30;99.90;;;;;;5068770;28;20656;-77
2022/11/01 01:50:26;;;;;;;1.73;0.28;;;23.40;99.90;;;;;;5068675;28;20196;-76
2022/11/01 01:53:01;;;;;;;2.03;0.30;;;23.40;99.90;;;;;;5068508;28;20193;-74
2022/11/01 01:55:37;;;;;;;0.30;0.20;;;23.30;99.90;;;;;;5071335;28;20217;-78
2022/11/01 01:58:08;;;;;;;0.10;0.10;;;23.40;99.90;;;;;;5074638;28;20197;-73
2022/11/01 02:00:43;;;;;;;0.00;0.00;;;23.50;99.90;;;;;;5065695;28;20201;-76
2022/11/01 02:03:14;;;;;;;0.68;0.20;;;23.40;99.90;;;;;;5070951;28;20192;-73
2022/11/01 02:05:50;;;;;;;0.60;0.20;;;23.40;99.90;;;;;;5070021;28;20192;-74
2022/11/01 02:08:28;;;;;;;0.93;0.25;;;23.50;99.90;;;;;;5064752;28;20196;-76
2022/11/01 02:11:01;;;;;;;0.50;0.40;;;23.40;99.90;;;;;;5064067;28;20203;-74
2022/11/01 02:13:32;;;;;;;1.52;0.10;;;23.50;99.90;;;;;;5066537;28;20674;-74
2022/11/01 02:16:20;;;;;;;0.45;0.10;;;23.60;99.90;;;;;;5072218;28;20218;-73
2022/11/01 02:18:57;;;;;;;1.65;0.20;;;23.70;99.90;;;;;;5069389;28;20199;-76
2022/11/01 02:21:53;;;;;;;0.75;0.10;;;23.70;99.90;;;;;;5069540;28;20205;-76
2022/11/01 02:24:54;;;;;;;0.35;0.10;;;23.70;99.90;;;;;;5074257;28;20203;-76
2022/11/01 02:27:34;;;;;;;0.10;0.10;;;23.70;99.90;;;;;;5062472;28;20197;-75
2022/11/01 02:30:17;;;;;;;1.30;0.43;;;23.60;99.90;;;;;;5065319;28;20212;-74
2022/11/01 02:33:06;;;;;;;1.38;0.20;;;23.60;99.90;;;;;;5064813;28;20205;-74
2022/11/01 02:35:54;;;;;;;0.38;0.17;;;23.70;99.90;;;;;;5071588;28;20224;-75
2022/11/01 02:38:31;;;;;;;0.20;0.10;;;23.90;99.90;;;;;;5072809;28;20193;-74
2022/11/01 02:41:09;;;;;;;0.85;0.03;;;24.10;99.90;;;;;;5071774;28;20199;-74
2022/11/01 02:43:48;;;;;;;0.10;0.10;;;24.00;99.90;;;;;;5064195;28;20192;-71
2022/11/01 02:49:10;;;;;;;3.33;0.40;;;23.80;99.90;;;;;;5068588;28;20232;-73
2022/11/01 02:51:43;;;;;;;1.38;0.20;;;23.80;99.90;;;;;;5068602;28;20215;-80
2022/11/01 02:54:24;;;;;;;0.95;0.10;;;23.60;99.90;;;;;;5071295;28;20189;-77
2022/11/01 02:56:56;;;;;;;2.22;0.20;;;23.60;99.90;;;;;;5071804;28;20656;-76
2022/11/01 02:59:29;;;;;;;1.48;0.10;;;23.60;99.90;;;;;;5073041;28;20193;-73
2022/11/01 03:02:06;;;;;;;3.33;0.10;;;23.60;99.90;;;;;;5071006;28;20234;-76
2022/11/01 03:04:39;;;;;;;0.22;0.10;;;23.70;99.90;;;;;;5070817;28;20224;-75
2022/11/01 03:07:13;;;;;;;1.02;0.10;;;23.60;99.90;;;;;;5073030;28;20204;-74
2022/11/01 03:09:44;;;;;;;0.05;0.05;;;23.60;99.90;;;;;;5070824;28;20671;-69
2022/11/01 03:12:24;;;;;;;0.75;0.10;;;23.50;99.90;;;;;;5069699;28;20193;-71
2022/11/01 03:15:02;;;;;;;1.60;0.17;;;23.50;99.90;;;;;;5067527;28;20295;-71
2022/11/01 03:17:38;;;;;;;0.20;0.20;;;23.60;99.90;;;;;;5071054;28;20200;-82
2022/11/01 03:20:16;;;;;;;1.48;0.30;;;23.60;99.90;;;;;;5069602;28;20200;-75
2022/11/01 03:22:50;;;;;;;0.10;0.10;;;23.60;99.90;;;;;;5065064;28;20204;-70
2022/11/01 03:25:40;;;;;;;0.52;0.10;;;23.60;99.90;;;;;;5068664;28;20207;-76
2022/11/01 03:28:19;;;;;;;0.68;0.10;;;23.60;99.90;;;;;;5071740;28;20750;-73
2022/11/01 03:30:54;;;;;;;1.00;0.10;;;23.50;99.90;;;;;;5072328;28;20197;-71
2022/11/01 03:33:27;;;;;;;0.05;0.00;;;23.60;99.90;;;;;;5069773;28;20199;-75
2022/11/01 03:36:04;;;;;;;0.75;0.20;;;23.50;99.90;;;;;;5065420;28;20220;-73
2022/11/01 03:38:40;;;;;;;0.43;0.10;;;23.60;99.90;;;;;;5070978;28;20655;-73
2022/11/01 03:41:18;;;;;;;0.20;0.20;;;23.70;99.90;;;;;;5072537;28;20192;-72
2022/11/01 03:43:49;;;;;;;0.40;0.20;;;23.70;99.90;;;;;;5072841;28;20201;-76
2022/11/01 03:46:21;;;;;;;1.77;0.10;;;23.80;99.90;;;;;;5071107;28;20232;-70
2022/11/01 03:48:52;;;;;;;0.17;0.10;;;23.70;99.90;;;;;;5069666;28;20192;-75
2022/11/01 03:51:24;;;;;;;0.20;0.20;;;23.80;99.90;;;;;;5070371;28;20201;-73
2022/11/01 03:53:55;;;;;;;0.22;0.10;;;23.90;99.90;;;;;;5067316;28;20214;-73
2022/11/01 03:56:26;;;;;;;0.10;0.10;;;24.00;99.90;;;;;;5064975;28;20224;-74
2022/11/01 03:58:57;;;;;;;0.00;0.00;;;23.80;99.90;;;;;;5071693;28;20208;-72
2022/11/01 04:01:28;;;;;;;0.30;0.10;;;23.60;99.90;;;;;;5070131;28;20201;-73
2022/11/01 04:03:58;;;;;;;1.20;0.20;;;23.40;99.90;;;;;;5069701;28;20315;-73
2022/11/01 04:06:31;;;;;;;0.10;0.10;;;23.10;99.90;;;;;;5070686;28;20204;-73
2022/11/01 04:09:02;;;;;;;1.08;0.30;;;23.10;99.90;;;;;;5070761;28;20196;-73
2022/11/01 04:11:33;;;;;;;1.05;0.10;;;23.20;99.90;;;;;;5071254;28;20197;-73
2022/11/01 04:22:25;;;;;;;0.10;0.00;;;23.70;99.90;;;;;;5069324;28;20196;-74
2022/11/01 04:24:56;;;;;;;0.50;0.10;;;23.50;99.90;;;;;;5068505;28;20224;-75
2022/11/01 04:27:27;;;;;;;0.15;0.10;;;23.40;99.90;;;;;;5059947;28;20196;-75
2022/11/01 04:29:58;;;;;;;0.03;0.03;;;23.40;99.90;;;;;;5068567;28;20193;-73
2022/11/01 04:32:29;;;;;;;0.10;0.10;;;23.30;99.90;;;;;;5070991;28;20967;-78
2022/11/01 04:34:59;;;;;;;0.10;0.10;;;23.20;99.90;;;;;;5071193;28;20203;-69
2022/11/01 04:37:32;;;;;;;0.08;0.08;;;23.00;99.90;;;;;;5070822;28;20664;-73
2022/11/01 04:40:03;;;;;;;0.40;0.13;;;22.80;99.90;;;;;;5071009;28;20194;-72
2022/11/01 04:42:35;;;;;;;5.82;4.13;;;22.60;99.90;;;;;;5071913;28;20197;-71
2022/11/01 04:45:08;;;;;;;1.48;1.20;;;22.50;99.90;;;;;;5067640;28;20228;-70
2022/11/01 04:47:38;;;;;;;0.40;0.35;;;22.40;99.90;;;;;;5067308;28;20721;-74
2022/11/01 04:50:10;;;;;;;0.60;0.55;;;22.40;99.90;;;;;;5071940;28;20201;-73
2022/11/01 04:52:43;;;;;;;0.20;0.20;;;22.40;99.90;;;;;;5072555;28;21222;-76
2022/11/01 04:55:13;;;;;;;0.10;0.10;;;22.30;99.90;;;;;;5072935;28;20195;-76
2022/11/01 04:57:45;;;;;;;1.05;0.30;;;22.10;99.90;;;;;;5066376;28;20201;-73
2022/11/01 05:00:16;;;;;;;0.30;0.30;;;22.00;99.90;;;;;;5065980;28;20197;-74
2022/11/01 05:02:48;;;;;;;1.98;0.35;;;21.90;99.90;;;;;;5059805;28;20207;-74
2022/11/01 05:05:20;;;;;;;0.22;0.20;;;21.70;99.90;;;;;;5063286;28;20253;-73
2022/11/01 05:07:52;;;;;;;1.95;0.30;;;21.60;99.90;;;;;;5066818;28;20204;-74
2022/11/01 05:10:23;;;;;;;1.13;0.20;;;21.60;99.90;;;;;;5071472;28;20652;-74
2022/11/01 05:12:54;;;;;;;0.60;0.20;;;21.40;99.90;;;;;;5066388;28;20188;-73
2022/11/01 05:15:25;;;;;;;0.13;0.13;;;21.30;99.90;;;;;;5072783;28;20219;-74
2022/11/01 05:17:56;;;;;;;0.43;0.30;;;21.00;99.90;;;;;;5072040;28;20193;-75
2022/11/01 05:20:26;;;;;;;1.08;0.10;;;20.90;99.90;;;;;;5075984;28;20196;-73
2022/11/01 05:23:03;;;;;;;0.30;0.20;;;20.80;99.90;;;;;;5064399;28;20199;-73
2022/11/01 05:25:34;;;;;;;0.40;0.25;;;20.90;99.90;;;;;;5068395;28;20228;-74
2022/11/01 05:28:06;;;;;;;0.20;0.20;;;20.80;99.90;;;;;;5064509;28;20192;-80
2022/11/01 05:30:38;;;;;;;5.15;3.17;;;20.70;99.90;;;;;;5066339;28;20197;-74
2022/11/01 05:33:10;;;;;;;1.63;1.02;;;20.50;99.90;;;;;;5065975;28;20735;-73
2022/11/01 05:35:41;;;;;;;4.00;0.70;;;20.40;99.90;;;;;;5068918;28;20213;-74
2022/11/01 05:38:14;;;;;;;0.20;0.20;;;20.30;99.90;;;;;;5065082;28;20201;-75
2022/11/01 05:40:45;;;;;;;1.20;0.30;;;20.40;99.90;;;;;;5069605;28;20207;-74
2022/11/01 05:43:16;;;;;;;0.40;0.22;;;20.60;99.90;;;;;;5063678;28;20204;-75
2022/11/01 05:45:46;;;;;;;0.17;0.10;;;20.50;99.90;;;;;;5059989;28;20232;-80
2022/11/01 05:48:17;;;;;;;0.10;0.10;;;20.40;99.90;;;;;;5058369;28;20280;-75
2022/11/01 05:50:48;;;;;;;1.60;0.30;;;20.30;99.90;;;;;;5068542;28;20239;-75
2022/11/01 05:53:21;;;;;;;0.10;0.10;;;20.10;99.90;;;;;;5067898;28;20204;-76
2022/11/01 05:55:54;;;;;;;0.10;0.10;;;20.00;99.90;;;;;;5065553;28;20245;-76
2022/11/01 05:58:24;;;;;;;1.00;0.10;;;19.90;99.90;;;;;;5066591;28;20561;-75
2022/11/01 06:01:01;;;;;;;1.45;0.20;;;19.60;99.90;;;;;;5076769;28;20188;-76
2022/11/01 06:03:32;;;;;;;0.10;0.10;;;19.50;99.90;;;;;;5064060;28;20583;-75
2022/11/01 06:06:03;;;;;;;0.25;0.20;;;19.40;99.90;;;;;;5063014;28;20198;-76
2022/11/01 06:08:36;;;;;;;0.30;0.20;;;19.20;99.90;;;;;;5064543;28;20564;-75
2022/11/01 06:11:08;;;;;;;0.32;0.28;;;19.00;99.90;;;;;;5071731;28;20197;-76
2022/11/01 06:13:39;;;;;;;0.13;0.13;;;18.90;99.90;;;;;;5065019;28;20660;-76
2022/11/01 06:16:10;;;;;;;0.15;0.15;;;18.90;99.90;;;;;;5072181;28;20307;-76
2022/11/01 06:18:41;;;;;;;0.15;0.10;;;18.80;99.90;;;;;;5078322;28;20185;-76
2022/11/01 06:21:12;;;;;;;1.13;0.20;;;18.70;99.90;;;;;;5074619;28;20212;-76
2022/11/01 06:23:49;;;;;;;0.40;0.20;;;18.70;99.90;;;;;;5071438;28;20296;-77
2022/11/01 06:26:21;;;;;;;0.20;0.20;;;18.80;99.90;;;;;;5071398;28;20305;-75
2022/11/01 06:28:52;;;;;;;0.20;0.20;;;18.80;99.90;;;;;;5074170;28;20276;-74
2022/11/01 06:31:23;;;;;;;0.35;0.25;;;18.80;99.90;;;;;;5068661;28;20197;-74
2022/11/01 06:33:53;;;;;;;0.55;0.20;;;18.70;99.90;;;;;;5072777;28;20197;-75
2022/11/01 06:36:25;;;;;;;0.10;0.10;;;18.70;99.90;;;;;;5072457;28;20725;-72
2022/11/01 06:38:58;;;;;;;0.30;0.20;;;18.80;99.90;;;;;;5071463;28;20210;-74
2022/11/01 06:41:29;;;;;;;0.77;0.20;;;18.90;99.90;;;;;;5070936;28;20348;-74
2022/11/01 06:44:00;;;;;;;0.98;0.30;;;19.10;99.90;;;;;;5068726;28;20193;-77
2022/11/01 06:46:31;;;;;;;0.15;0.10;;;19.40;99.90;;;;;;5075701;28;20204;-74
2022/11/01 06:49:02;;;;;;;0.40;0.20;;;19.60;99.90;;;;;;5068324;28;20193;-72
2022/11/01 06:51:33;;;;;;;0.20;0.20;;;19.70;99.90;;;;;;5072654;28;20242;-73
2022/11/01 06:54:05;;;;;;;0.20;0.20;;;19.80;99.90;;;;;;5070149;28;20189;-75
2022/11/01 06:56:36;;;;;;;0.10;0.10;;;19.70;99.90;;;;;;5073153;28;20208;-73
2022/11/01 06:59:07;;;;;;;0.10;0.10;;;19.70;99.90;;;;;;5070965;28;20193;-73
2022/11/01 07:01:38;;;;;;;0.20;0.15;;;19.60;99.90;;;;;;5068783;28;20192;-74
2022/11/01 07:04:09;;;;;;;0.10;0.10;;;19.50;99.90;;;;;;5072091;28;20201;-74
2022/11/01 07:06:40;;;;;;;0.75;0.20;;;19.50;99.90;;;;;;5069940;28;20235;-71
2022/11/01 07:09:12;;;;;;;0.22;0.20;;;19.60;99.90;;;;;;5065891;28;20204;-74
2022/11/01 07:11:44;;;;;;;0.20;0.10;;;19.60;99.90;;;;;;5071165;28;20682;-72
2022/11/01 07:14:14;;;;;;;0.20;0.20;;;19.60;99.90;;;;;;5070996;28;20254;-73
2022/11/01 07:16:45;;;;;;;0.70;0.20;;;19.60;99.90;;;;;;5065351;28;20583;-74
2022/11/01 07:19:16;;;;;;;0.20;0.20;;;19.50;99.90;;;;;;5063419;28;20201;-70
2022/11/01 07:21:47;;;;;;;0.28;0.20;;;19.40;99.90;;;;;;5069356;28;20562;-74
2022/11/01 07:24:19;;;;;;;0.35;0.20;;;19.40;99.90;;;;;;5070877;28;20196;-72
2022/11/01 07:26:50;;;;;;;0.57;0.30;;;19.30;99.90;;;;;;5065346;28;20719;-74
2022/11/01 07:29:21;;;;;;;0.20;0.20;;;19.20;99.90;;;;;;5069577;28;20211;-73
2022/11/01 07:31:52;;;;;;;0.30;0.30;;;19.20;99.90;;;;;;5068561;28;20188;-73
2022/11/01 07:34:22;;;;;;;0.35;0.20;;;19.10;99.90;;;;;;5068825;28;20200;-72
2022/11/01 07:36:56;;;;;;;0.38;0.30;;;19.10;99.90;;;;;;5082687;22;20260;-70
2022/11/01 07:39:29;;;;;;;1.08;0.30;;;19.10;99.90;;;;;;5045062;28;20644;-69
2022/11/01 07:42:01;;;;;;;0.55;0.30;;;19.10;99.90;;;;;;5048638;28;20200;-70
2022/11/01 07:44:32;;;;;;;0.35;0.22;;;19.10;99.90;;;;;;5050879;28;20194;-69
2022/11/01 07:47:02;;;;;;;0.55;0.38;;;19.10;99.90;;;;;;5049016;28;20284;-71
2022/11/01 07:49:33;;;;;;;0.30;0.30;;;19.00;99.90;;;;;;5051359;28;20201;-70
2022/11/01 07:52:04;;;;;;;0.22;0.22;;;19.00;99.90;;;;;;5051604;28;20728;-69
2022/11/01 07:54:36;;;;;;;0.30;0.30;;;19.00;99.90;;;;;;5050851;28;20723;-70
2022/11/01 07:57:08;;;;;;;0.32;0.20;;;19.00;99.90;;;;;;5046672;28;20221;-70
2022/11/01 07:59:40;;;;;;;1.67;0.40;;;19.00;99.90;;;;;;5052325;28;20538;-69
2022/11/01 08:02:11;;;;;;;0.47;0.40;;;19.00;99.90;;;;;;5048437;28;20623;-72
2022/11/01 08:04:42;;;;;;;0.32;0.30;;;18.90;99.90;;;;;;5051154;28;20194;-69
2022/11/01 08:07:13;;;;;;;0.50;0.30;;;18.90;99.90;;;;;;5050094;28;20222;-71
2022/11/01 08:09:46;;;;;;;0.57;0.15;;;18.70;99.90;;;;;;5048425;28;20301;-69
2022/11/01 08:12:17;;;;;;;1.25;0.20;;;18.60;99.90;;;;;;5047163;28;20726;-70
2022/11/01 08:14:48;;;;;;;1.50;0.20;;;18.50;99.90;;;;;;5048324;28;20280;-69
2022/11/01 08:17:21;;;;;;;1.27;0.30;;;18.40;99.90;;;;;;5046823;28;20256;-70
2022/11/01 08:19:52;;;;;;;1.10;0.30;;;18.30;99.90;;;;;;5049720;28;20200;-69
2022/11/01 08:22:23;;;;;;;0.30;0.20;;;18.20;99.90;;;;;;5048304;28;20308;-70
2022/11/01 08:24:56;;;;;;;0.77;0.25;;;18.10;99.90;;;;;;5052749;28;20215;-70
2022/11/01 08:27:30;;;;;;;0.20;0.10;;;17.90;99.90;;;;;;5048706;28;20200;-70
2022/11/01 08:30:00;;;;;;;1.45;0.10;;;17.80;99.90;;;;;;5052387;28;20197;-70
2022/11/01 08:32:40;;;;;;;0.73;0.20;;;17.70;99.90;;;;;;5042935;28;20207;-73
2022/11/01 08:35:12;;;;;;;1.23;0.20;;;17.60;99.90;;;;;;5046580;28;20197;-71
2022/11/01 08:37:51;;;;;;;0.20;0.20;;;17.60;99.90;;;;;;5028521;28;20244;-70
2022/11/01 08:40:25;;;;;;;1.60;0.17;;;17.60;99.90;;;;;;5019986;28;20194;-76
2022/11/01 08:42:55;;;;;;;0.57;0.20;;;17.50;99.90;;;;;;5020561;28;20239;-76
2022/11/01 08:45:32;;;;;;;1.88;0.17;;;17.50;99.90;;;;;;5021551;28;20203;-70
2022/11/01 08:48:04;;;;;;;1.95;0.28;;;17.50;99.90;;;;;;5025909;28;20208;-71
2022/11/01 08:50:36;;;;;;;0.30;0.20;;;17.50;99.90;;;;;;5024845;28;20577;-72
2022/11/01 08:53:11;;;;;;;0.70;0.15;;;17.50;99.90;;;;;;5023257;28;20198;-71
2022/11/01 08:55:44;;;;;;;0.68;0.20;;;17.50;99.90;;;;;;5029016;28;20204;-70
2022/11/01 08:58:14;;;;;;;0.45;0.20;;;17.50;99.90;;;;;;5024699;28;20221;-70
2022/11/01 09:00:47;;;;;;;0.20;0.20;;;17.40;99.90;;;;;;5021791;28;20205;-71
2022/11/01 09:03:18;;;;;;;2.65;0.22;;;17.40;99.90;;;;;;5023524;28;20210;-72
2022/11/01 09:05:51;;;;;;;0.90;0.10;;;17.40;99.90;;;;;;5025018;28;20233;-70
2022/11/01 09:08:22;;;;;;;0.50;0.30;;;17.40;99.90;;;;;;5024653;28;20198;-70
2022/11/01 09:11:00;;;;;;;0.15;0.15;;;17.30;99.90;;;;;;5028261;28;20775;-73
2022/11/01 09:13:31;;;;;;;0.93;0.15;;;17.20;99.90;;;;;;5028007;28;20613;-71
2022/11/01 09:16:05;;;;;;;0.10;0.10;;;17.20;99.90;;;;;;5029524;28;20240;-72
2022/11/01 09:18:36;;;;;;;0.20;0.20;;;17.10;99.90;;;;;;5027774;28;20315;-72
2022/11/01 09:21:07;;;;;;;1.83;0.30;;;17.00;99.90;;;;;;5029405;28;20309;-71
2022/11/01 09:23:39;;;;;;;0.35;0.13;;;17.00;99.90;;;;;;5031099;28;20203;-71
2022/11/01 09:26:13;;;;;;;0.75;0.28;;;17.00;99.90;;;;;;5030362;28;20212;-71
2022/11/01 09:28:44;;;;;;;0.20;0.20;;;16.90;99.90;;;;;;5029996;28;20226;-72
2022/11/01 09:31:15;;;;;;;0.38;0.17;;;16.90;99.90;;;;;;5030223;28;20202;-72
2022/11/01 09:33:46;;;;;;;0.40;0.20;;;16.90;99.90;;;;;;5029962;28;20309;-75
2022/11/01 09:36:17;;;;;;;1.45;0.22;;;16.80;99.90;;;;;;5029325;28;20220;-75
2022/11/01 09:38:48;;;;;;;1.05;0.20;;;16.90;99.90;;;;;;5026167;28;20217;-77
2022/11/01 09:41:29;;;;;;;0.20;0.20;;;16.90;99.90;;;;;;5029878;28;20653;-75
2022/11/01 09:44:02;;;;;;;0.30;0.20;;;16.90;99.90;;;;;;5027210;28;20602;-74
2022/11/01 09:46:40;;;;;;;0.47;0.20;;;16.90;99.90;;;;;;5034820;28;20282;-73
2022/11/01 09:49:19;;;;;;;0.32;0.10;;;17.00;99.90;;;;;;5032350;28;20653;-80
2022/11/01 09:51:50;;;;;;;0.10;0.10;;;17.00;99.90;;;;;;5032582;28;20198;-75
2022/11/01 09:54:23;;;;;;;0.25;0.13;;;16.90;99.90;;;;;;5033817;28;21179;-74
2022/11/01 09:57:07;;;;;;;0.82;0.20;;;16.90;99.90;;;;;;5033086;28;21286;-74
2022/11/01 09:59:42;;;;;;;0.10;0.10;;;16.90;99.90;;;;;;5028847;28;20199;-76
2022/11/01 10:02:49;;;;;;;0.10;0.10;;;16.90;99.90;;;;;;5032468;28;20710;-74
2022/11/01 10:05:34;;;;;;;0.13;0.10;;;16.90;99.90;;;;;;5023931;28;20202;-74
2022/11/01 10:08:14;;;;;;;0.10;0.10;;;16.80;99.90;;;;;;5032914;28;20543;-72
2022/11/01 10:10:54;;;;;;;1.08;0.25;;;16.80;99.90;;;;;;5025843;28;20739;-72
2022/11/01 10:13:42;;;;;;;2.15;0.22;;;16.70;99.90;;;;;;5028978;28;20612;-71
2022/11/01 10:16:19;;;;;;;0.15;0.15;;;16.70;99.90;;;;;;5030813;28;20198;-71
2022/11/01 10:18:56;;;;;;;0.30;0.10;;;16.70;99.90;;;;;;5029213;28;20209;-71
2022/11/01 10:21:30;;;;;;;0.10;0.10;;;16.60;99.90;;;;;;5032807;28;20204;-72
2022/11/01 10:24:04;;;;;;;0.10;0.10;;;16.50;99.90;;;;;;5035508;28;20217;-71
2022/11/01 10:26:43;;;;;;;0.10;0.10;;;16.50;99.90;;;;;;5032979;28;20205;-71
2022/11/01 10:29:24;;;;;;;0.25;0.10;;;16.50;99.90;;;;;;5029521;28;20272;-71
2022/11/01 10:31:56;;;;;;;0.25;0.10;;;16.50;99.90;;;;;;5026390;28;20209;-71
2022/11/01 10:34:30;;;;;;;0.10;0.10;;;16.40;99.90;;;;;;5029155;28;20201;-73
2022/11/01 10:37:13;;;;;;;0.13;0.10;;;16.40;99.90;;;;;;5032313;28;20244;-71
2022/11/01 10:39:52;;;;;;;0.20;0.20;;;16.30;99.90;;;;;;5029516;28;20329;-72
2022/11/01 10:42:23;;;;;;;0.65;0.20;;;16.30;99.90;;;;;;5031894;28;20205;-71
2022/11/01 10:45:00;;;;;;;0.20;0.20;;;16.30;99.90;;;;;;5029283;28;20194;-71
2022/11/01 10:47:37;;;;;;;0.22;0.22;;;16.30;99.90;;;;;;5032657;28;20569;-70
2022/11/01 10:50:19;;;;;;;2.30;0.10;;;16.30;99.90;;;;;;5024259;28;20241;-71
2022/11/01 10:52:54;;;;;;;2.38;0.10;;;16.30;99.90;;;;;;5026447;28;20573;-71
2022/11/01 10:55:30;;;;;;;0.10;0.10;;;16.30;99.90;;;;;;5022765;28;20208;-71
2022/11/01 10:58:05;;;;;;;0.32;0.10;;;16.30;99.90;;;;;;5029468;28;20579;-72
2022/11/01 11:00:41;;;;;;;0.35;0.20;;;16.30;99.90;;;;;;5031475;28;20632;-72
2022/11/01 11:03:20;;;;;;;0.10;0.10;;;16.30;99.90;;;;;;5030428;28;20289;-72
2022/11/01 11:05:52;;;;;;;0.77;0.10;;;16.30;99.90;;;;;;5033512;28;20206;-72
2022/11/01 11:08:26;;;;;;;0.20;0.20;;;16.20;99.90;;;;;;5026843;28;20205;-71
2022/11/01 11:11:00;;;;;;;0.45;0.20;;;16.30;99.90;;;;;;5032752;28;20188;-72
2022/11/01 11:13:33;;;;;;;0.20;0.20;;;16.20;99.90;;;;;;5034312;28;20190;-72
2022/11/01 11:16:07;;;;;;;0.13;0.10;;;16.20;99.90;;;;;;5033813;28;20205;-72
2022/11/01 11:18:40;;;;;;;0.90;0.10;;;16.10;99.90;;;;;;5026974;28;20210;-70
2022/11/01 11:21:15;;;;;;;0.20;0.20;;;16.00;99.90;;;;;;5034787;28;20194;-72
2022/11/01 11:23:48;;;;;;;0.10;0.10;;;16.00;99.90;;;;;;5028822;28;20614;-72
2022/11/01 11:26:22;;;;;;;0.95;0.10;;;16.00;99.90;;;;;;5033435;28;20194;-73
2022/11/01 11:28:55;;;;;;;0.20;0.20;;;15.90;99.90;;;;;;5034467;28;20234;-70
2022/11/01 11:31:30;;;;;;;0.20;0.20;;;15.90;99.90;;;;;;5027881;28;20572;-73
2022/11/01 11:34:05;;;;;;;0.73;0.10;;;15.80;99.90;;;;;;5033194;28;20201;-73
2022/11/01 11:36:39;;;;;;;0.13;0.10;;;15.70;99.90;;;;;;5026065;28;20234;-71
2022/11/01 11:39:24;;;;;;;0.65;0.20;;;15.70;99.90;;;;;;5033296;28;20257;-71
2022/11/01 11:41:56;;;;;;;0.10;0.10;;;15.60;99.90;;;;;;5030586;28;20277;-71
2022/11/01 11:44:50;;;;;;;0.20;0.20;;;15.60;99.90;;;;;;5032260;28;20206;-72
2022/11/01 11:47:28;;;;;;;0.20;0.10;;;15.50;99.90;;;;;;5018768;28;20210;-75
2022/11/01 11:49:59;;;;;;;0.10;0.10;;;15.50;99.90;;;;;;5026562;28;20560;-75
2022/11/01 11:52:37;;;;;;;0.10;0.10;;;15.50;99.90;;;;;;5025236;28;20205;-75
2022/11/01 11:55:27;;;;;;;0.20;0.20;;;15.50;99.90;;;;;;5031158;28;20201;-72
2022/11/01 11:57:59;;;;;;;0.40;0.20;;;15.40;99.90;;;;;;5033042;28;20684;-72
2022/11/01 12:00:33;;;;;;;0.10;0.10;;;15.40;99.90;;;;;;5033581;28;20206;-73
2022/11/01 12:03:08;;;;;;;0.10;0.10;;;15.40;99.90;;;;;;5032245;28;20197;-73
2022/11/01 12:05:40;;;;;;;0.38;0.20;;;15.30;99.90;;;;;;5031560;28;20649;-73
2022/11/01 12:08:39;;;;;;;0.65;0.20;;;15.30;99.90;;;;;;5032507;28;20202;-72
2022/11/01 12:11:10;;;;;;;0.60;0.40;;;15.10;99.90;;;;;;5022884;28;20195;-74
2022/11/01 12:13:42;;;;;;;0.10;0.10;;;15.10;99.90;;;;;;5031318;28;20566;-74
2022/11/01 12:16:20;;;;;;;0.30;0.20;;;15.00;99.90;;;;;;5033763;28;20198;-75
2022/11/01 12:18:56;;;;;;;0.10;0.10;;;15.00;99.90;;;;;;5025223;28;20225;-72
2022/11/01 12:21:30;;;;;;;0.20;0.13;;;15.00;99.90;;;;;;5025845;28;20568;-73
2022/11/01 12:24:06;;;;;;;0.68;0.30;;;14.90;99.90;;;;;;5032352;28;20205;-72
2022/11/01 12:26:40;;;;;;;1.02;0.30;;;14.90;99.90;;;;;;5029594;28;20220;-73
2022/11/01 12:29:23;;;;;;;0.40;0.30;;;14.90;99.90;;;;;;5024514;28;20370;-74
2022/11/01 12:31:55;;;;;;;0.40;0.28;;;14.90;99.90;;;;;;5022104;28;20733;-74
2022/11/01 12:34:30;;;;;;;0.20;0.20;;;14.80;99.90;;;;;;5031024;28;20202;-73
2022/11/01 12:37:06;;;;;;;1.40;0.20;;;14.80;99.90;;;;;;5031272;28;20380;-73
2022/11/01 12:39:47;;;;;;;0.45;0.20;;;14.80;99.90;;;;;;5024647;28;20222;-72
2022/11/01 12:42:25;;;;;;;0.65;0.25;;;14.80;99.90;;;;;;5031325;28;20198;-72
2022/11/01 12:44:59;;;;;;;0.52;0.20;;;14.80;99.90;;;;;;5029979;28;20692;-73
2022/11/01 12:47:39;;;;;;;0.10;0.10;;;14.80;99.90;;;;;;5032374;28;20227;-73
2022/11/01 12:50:20;;;;;;;0.35;0.20;;;14.80;99.90;;;;;;5022881;28;20194;-74
2022/11/01 12:52:57;;;;;;;0.32;0.17;;;14.80;99.90;;;;;;5022430;28;20293;-73
2022/11/01 12:55:35;;;;;;;0.38;0.30;;;14.70;99.90;;;;;;5030744;28;20243;-74
2022/11/01 12:58:08;;;;;;;0.60;0.20;;;14.70;99.90;;;;;;5031715;28;20249;-72
2022/11/01 13:00:50;;;;;;;0.10;0.10;;;14.70;99.90;;;;;;5022441;28;20278;-71
2022/11/01 13:03:33;;;;;;;0.15;0.10;;;14.60;99.90;;;;;;5024692;28;20204;-72
2022/11/01 13:06:19;;;;;;;0.82;0.35;;;14.60;99.90;;;;;;5022798;28;20604;-74
2022/11/01 13:08:57;;;;;;;0.57;0.20;;;14.60;99.90;;;;;;5031031;28;20213;-74
2022/11/01 13:11:31;;;;;;;0.80;0.20;;;14.60;99.90;;;;;;5025409;28;20194;-74
2022/11/01 13:14:16;;;;;;;0.55;0.20;;;14.50;99.90;;;;;;5030098;28;20252;-72
2022/11/01 13:16:50;;;;;;;0.20;0.20;;;14.50;99.90;;;;;;5026575;28;20204;-72
2022/11/01 13:19:25;;;;;;;0.47;0.30;;;14.60;99.90;;;;;;5029435;28;20253;-71
2022/11/01 13:22:02;;;;;;;0.20;0.20;;;14.60;99.90;;;;;;5031857;28;20198;-71
2022/11/01 13:24:41;;;;;;;0.50;0.43;;;14.50;99.90;;;;;;5023335;28;20272;-71
2022/11/01 13:27:17;;;;;;;0.28;0.20;;;14.60;99.90;;;;;;5030837;28;20559;-72
2022/11/01 13:29:55;;;;;;;0.22;0.17;;;14.60;99.90;;;;;;5027371;28;20656;-71
2022/11/01 13:32:35;;;;;;;0.10;0.10;;;14.50;99.90;;;;;;5028610;28;20542;-70
2022/11/01 13:35:38;;;;;;;0.13;0.13;;;14.60;99.90;;;;;;5029431;28;20573;-69